Nearby METAR Reports

 

KPMP - Pompano Beach, Florida, USA
Distance from station: NNW 3mi, 5km
Updated: 12/12/2017 2:53am
Clear
Clear
 Wind from WNW
Wind: WNW 3 mph , 6 km/h
Temperature: 48°F , 9°C
Dew Point: 43°F , 6°C
Humidity: 82%
Barometer: 30.10 inHg , 1019.3 hPa
Clouds: Clear
Visibility: 10 miles , 16 km
2017/12/12 07:53 KPMP 120753Z AUTO 30003KT 10SM CLR 09/06 A3010 RMK AO2 SLP194 T00940061
KFXE - Ft Lauderd/Exec, Florida, USA
Distance from station: W 6mi, 9km
Updated: 12/12/2017 2:53am
Clear
Clear
 Wind from NW
Wind: NW 3 mph , 6 km/h
Temperature: 48°F , 9°C
Dew Point: 46°F , 8°C
Humidity: 94%
Barometer: 30.10 inHg , 1019.3 hPa
Clouds: Clear
Visibility: 10 miles , 16 km
2017/12/12 07:53 KFXE 120753Z 31003KT 10SM CLR 09/08 A3010 RMK AO2 SLP195 T00940083
 
KFLL - Ft Lauderd/Holly, Florida, USA
Distance from station: SSW 11mi, 17km
Updated: 12/12/2017 2:53am
Clear
Clear
 Wind from NW
Wind: NW 5 mph , 7 km/h
Temperature: 50°F , 10°C
Wind Chill: 48°F , 9°C
Dew Point: 45°F , 7°C
Humidity: 82%
Barometer: 30.09 inHg , 1019 hPa
Clouds: Clear
Visibility: 10 miles , 16 km
2017/12/12 07:53 KFLL 120753Z 31004KT 10SM CLR 10/07 A3009 RMK AO2 SLP190 T01000072 $
KBCT - Boca Raton, Florida, USA
Distance from station: N 12mi, 19km
Updated: 12/11/2017 10:47pm
NOT Current
Few Clouds
Few Clouds
 Wind from NNW
Wind: NNW 5 mph , 7 km/h
Clouds: Few Clouds
Visibility: 10 miles , 16 km
Cloud details: Few Clouds 3500 ft
2017/12/12 03:47 KBCT 120347Z 33004KT 10SM FEW035 12/6 A3017 RMK LAST
 
KHWO - Hollywood, Florida, USA
Distance from station: SSW 17mi, 27km
Updated: 12/12/2017 2:53am
Clear
Clear
 Wind from calm
Wind: Calm
Temperature: 48°F , 9°C
Dew Point: 45°F , 7°C
Humidity: 87%
Barometer: 30.11 inHg , 1019.6 hPa
Clouds: Clear
Visibility: 10 miles , 16 km
2017/12/12 07:53 KHWO 120753Z AUTO 00000KT 10SM CLR 09/07 A3011 RMK AO2 SLP197 T00940067 $
KOPF - Miami/Opa Locka, Florida, USA
Distance from station: SSW 24mi, 38km
Updated: 12/12/2017 2:53am
Clear
Clear
 Wind from calm
Wind: Calm
Temperature: 50°F , 10°C
Dew Point: 46°F , 8°C
Humidity: 88%
Barometer: 30.11 inHg , 1019.6 hPa
Clouds: Clear
Visibility: 10 miles , 16 km
2017/12/12 07:53 KOPF 120753Z AUTO 00000KT 10SM CLR 10/08 A3011 RMK AO2 SLP196 T01000083
 
KMIA - Miami, Florida, USA
Distance from station: SSW 31mi, 50km
Updated: 12/12/2017 2:53am
Clear
Clear
 Wind from calm
Wind: Calm
Temperature: 50°F , 10°C
Dew Point: 43°F , 6°C
Humidity: 76%
Barometer: 30.11 inHg , 1019.6 hPa
Clouds: Clear
Visibility: 10 miles , 16 km
2017/12/12 07:53 KMIA 120753Z 00000KT 10SM CLR 10/06 A3011 RMK AO2 SLP195 T01000061 $
KPBI - West Palm Beach, Florida, USA
Distance from station: N 33mi, 52km
Updated: 12/12/2017 2:53am
Clear
Clear
 Wind from calm
Wind: Calm
Temperature: 46°F , 8°C
Dew Point: 43°F , 6°C
Humidity: 87%
Barometer: 30.11 inHg , 1019.6 hPa
Clouds: Clear
Visibility: 10 miles , 16 km
2017/12/12 07:53 KPBI 120753Z 00000KT 10SM CLR 08/06 A3011 RMK AO2 SLP195 T00780061
 
KTMB - Miami/Tamiami, Florida, USA
Distance from station: SSW 44mi, 71km
Updated: 12/12/2017 2:53am
Clear
Clear
 Wind from calm
Wind: Calm
Temperature: 46°F , 8°C
Dew Point: 43°F , 6°C
Humidity: 87%
Barometer: 30.11 inHg , 1019.6 hPa
Clouds: Clear
Visibility: 10 miles , 16 km
2017/12/12 07:53 KTMB 120753Z AUTO 00000KT 10SM CLR 08/06 A3011 RMK AO2 SLP194 T00830061